sensor_id;sensor_type;location;lat;lon;timestamp;P1;durP1;ratioP1;P2;durP2;ratioP2
71753;SDS011;59593;51.716;7.016;2023-02-28T00:00:22;11.43;;;7.43;;
71753;SDS011;59593;51.716;7.016;2023-02-28T00:02:48;11.50;;;6.67;;
71753;SDS011;59593;51.716;7.016;2023-02-28T00:05:15;9.97;;;6.80;;
71753;SDS011;59593;51.716;7.016;2023-02-28T00:07:42;9.53;;;6.60;;
71753;SDS011;59593;51.716;7.016;2023-02-28T00:10:09;11.07;;;7.47;;
71753;SDS011;59593;51.716;7.016;2023-02-28T00:12:36;9.80;;;6.27;;
71753;SDS011;59593;51.716;7.016;2023-02-28T00:15:05;10.30;;;6.40;;
71753;SDS011;59593;51.716;7.016;2023-02-28T00:17:31;11.10;;;6.07;;
71753;SDS011;59593;51.716;7.016;2023-02-28T00:19:57;6.50;;;4.63;;
71753;SDS011;59593;51.716;7.016;2023-02-28T00:22:34;7.23;;;5.13;;
71753;SDS011;59593;51.716;7.016;2023-02-28T00:25:01;10.27;;;5.40;;
71753;SDS011;59593;51.716;7.016;2023-02-28T00:27:26;7.90;;;5.03;;
71753;SDS011;59593;51.716;7.016;2023-02-28T00:29:52;6.97;;;4.87;;
71753;SDS011;59593;51.716;7.016;2023-02-28T00:32:19;7.20;;;5.07;;
71753;SDS011;59593;51.716;7.016;2023-02-28T00:34:44;7.13;;;4.90;;
71753;SDS011;59593;51.716;7.016;2023-02-28T00:37:10;7.37;;;4.87;;
71753;SDS011;59593;51.716;7.016;2023-02-28T00:39:39;8.67;;;5.07;;
71753;SDS011;59593;51.716;7.016;2023-02-28T00:42:06;6.30;;;4.57;;
71753;SDS011;59593;51.716;7.016;2023-02-28T00:44:32;7.20;;;4.97;;
71753;SDS011;59593;51.716;7.016;2023-02-28T00:46:58;6.97;;;4.50;;
71753;SDS011;59593;51.716;7.016;2023-02-28T00:49:24;8.10;;;4.60;;
71753;SDS011;59593;51.716;7.016;2023-02-28T00:51:51;8.13;;;4.10;;
71753;SDS011;59593;51.716;7.016;2023-02-28T00:54:18;7.70;;;4.30;;
71753;SDS011;59593;51.716;7.016;2023-02-28T00:56:44;6.70;;;4.13;;
71753;SDS011;59593;51.716;7.016;2023-02-28T00:59:11;4.87;;;3.63;;
71753;SDS011;59593;51.716;7.016;2023-02-28T01:01:37;6.80;;;4.03;;
71753;SDS011;59593;51.716;7.016;2023-02-28T01:04:03;7.00;;;4.00;;
71753;SDS011;59593;51.716;7.016;2023-02-28T01:06:29;6.03;;;3.83;;
71753;SDS011;59593;51.716;7.016;2023-02-28T01:08:56;5.50;;;3.80;;
71753;SDS011;59593;51.716;7.016;2023-02-28T01:11:22;5.10;;;3.50;;
71753;SDS011;59593;51.716;7.016;2023-02-28T01:13:48;5.40;;;3.97;;
71753;SDS011;59593;51.716;7.016;2023-02-28T01:16:13;7.27;;;3.70;;
71753;SDS011;59593;51.716;7.016;2023-02-28T01:18:39;5.40;;;3.67;;
71753;SDS011;59593;51.716;7.016;2023-02-28T01:21:09;6.47;;;3.80;;
71753;SDS011;59593;51.716;7.016;2023-02-28T01:23:37;4.67;;;3.53;;
71753;SDS011;59593;51.716;7.016;2023-02-28T01:26:04;6.10;;;3.67;;
71753;SDS011;59593;51.716;7.016;2023-02-28T01:28:34;5.13;;;3.47;;
71753;SDS011;59593;51.716;7.016;2023-02-28T01:31:00;5.77;;;4.03;;
71753;SDS011;59593;51.716;7.016;2023-02-28T01:33:26;7.00;;;3.87;;
71753;SDS011;59593;51.716;7.016;2023-02-28T01:36:02;5.97;;;3.90;;
71753;SDS011;59593;51.716;7.016;2023-02-28T01:38:30;4.73;;;3.47;;
71753;SDS011;59593;51.716;7.016;2023-02-28T01:40:56;5.77;;;3.53;;
71753;SDS011;59593;51.716;7.016;2023-02-28T01:43:28;6.17;;;3.63;;
71753;SDS011;59593;51.716;7.016;2023-02-28T01:46:19;5.67;;;3.43;;
71753;SDS011;59593;51.716;7.016;2023-02-28T01:48:50;5.07;;;3.43;;
71753;SDS011;59593;51.716;7.016;2023-02-28T01:51:26;4.93;;;3.70;;
71753;SDS011;59593;51.716;7.016;2023-02-28T01:53:56;8.00;;;3.67;;
71753;SDS011;59593;51.716;7.016;2023-02-28T01:56:27;5.20;;;3.30;;
71753;SDS011;59593;51.716;7.016;2023-02-28T01:58:57;7.63;;;4.10;;
71753;SDS011;59593;51.716;7.016;2023-02-28T02:01:24;8.67;;;4.50;;
71753;SDS011;59593;51.716;7.016;2023-02-28T02:03:56;5.50;;;4.20;;
71753;SDS011;59593;51.716;7.016;2023-02-28T02:06:25;5.53;;;3.67;;
71753;SDS011;59593;51.716;7.016;2023-02-28T02:08:56;6.87;;;3.87;;
71753;SDS011;59593;51.716;7.016;2023-02-28T02:11:22;4.50;;;3.80;;
71753;SDS011;59593;51.716;7.016;2023-02-28T02:16:46;4.80;;;3.63;;
71753;SDS011;59593;51.716;7.016;2023-02-28T02:25:02;5.33;;;3.40;;
71753;SDS011;59593;51.716;7.016;2023-02-28T02:36:23;5.80;;;4.10;;
71753;SDS011;59593;51.716;7.016;2023-02-28T02:39:01;5.23;;;3.87;;
71753;SDS011;59593;51.716;7.016;2023-02-28T02:41:49;5.63;;;3.90;;
71753;SDS011;59593;51.716;7.016;2023-02-28T02:44:20;5.00;;;3.53;;
71753;SDS011;59593;51.716;7.016;2023-02-28T02:47:03;6.43;;;3.70;;
71753;SDS011;59593;51.716;7.016;2023-02-28T02:49:36;5.90;;;3.67;;
71753;SDS011;59593;51.716;7.016;2023-02-28T02:52:04;5.33;;;3.50;;
71753;SDS011;59593;51.716;7.016;2023-02-28T02:54:40;6.77;;;3.60;;
71753;SDS011;59593;51.716;7.016;2023-02-28T02:57:09;5.33;;;3.73;;
71753;SDS011;59593;51.716;7.016;2023-02-28T02:59:40;7.00;;;3.87;;
71753;SDS011;59593;51.716;7.016;2023-02-28T03:02:07;5.87;;;3.50;;
71753;SDS011;59593;51.716;7.016;2023-02-28T03:04:38;5.40;;;3.30;;
71753;SDS011;59593;51.716;7.016;2023-02-28T03:07:08;8.00;;;3.60;;
71753;SDS011;59593;51.716;7.016;2023-02-28T03:09:34;6.63;;;3.40;;
71753;SDS011;59593;51.716;7.016;2023-02-28T03:12:03;6.27;;;3.80;;
71753;SDS011;59593;51.716;7.016;2023-02-28T03:14:55;5.33;;;3.87;;
71753;SDS011;59593;51.716;7.016;2023-02-28T03:23:25;5.53;;;3.23;;
71753;SDS011;59593;51.716;7.016;2023-02-28T03:26:13;3.90;;;3.00;;
71753;SDS011;59593;51.716;7.016;2023-02-28T03:28:49;6.13;;;3.60;;
71753;SDS011;59593;51.716;7.016;2023-02-28T03:31:21;3.90;;;3.00;;
71753;SDS011;59593;51.716;7.016;2023-02-28T03:34:03;4.63;;;3.27;;
71753;SDS011;59593;51.716;7.016;2023-02-28T03:36:39;5.87;;;3.27;;
71753;SDS011;59593;51.716;7.016;2023-02-28T03:39:14;4.53;;;3.60;;
71753;SDS011;59593;51.716;7.016;2023-02-28T03:41:45;5.87;;;3.70;;
71753;SDS011;59593;51.716;7.016;2023-02-28T03:44:18;5.13;;;3.00;;
71753;SDS011;59593;51.716;7.016;2023-02-28T03:46:52;4.90;;;3.30;;
71753;SDS011;59593;51.716;7.016;2023-02-28T03:49:25;6.23;;;3.60;;
71753;SDS011;59593;51.716;7.016;2023-02-28T03:51:56;5.53;;;3.50;;
71753;SDS011;59593;51.716;7.016;2023-02-28T03:54:26;5.73;;;3.73;;
71753;SDS011;59593;51.716;7.016;2023-02-28T03:59:44;4.70;;;3.57;;
71753;SDS011;59593;51.716;7.016;2023-02-28T04:02:13;4.90;;;3.50;;
71753;SDS011;59593;51.716;7.016;2023-02-28T04:04:39;6.43;;;3.63;;
71753;SDS011;59593;51.716;7.016;2023-02-28T04:07:13;4.33;;;3.30;;
71753;SDS011;59593;51.716;7.016;2023-02-28T04:09:39;4.63;;;3.23;;
71753;SDS011;59593;51.716;7.016;2023-02-28T04:12:06;3.87;;;3.20;;
71753;SDS011;59593;51.716;7.016;2023-02-28T04:14:32;4.93;;;3.40;;
71753;SDS011;59593;51.716;7.016;2023-02-28T04:16:57;5.87;;;3.53;;
71753;SDS011;59593;51.716;7.016;2023-02-28T04:19:23;7.47;;;3.63;;
71753;SDS011;59593;51.716;7.016;2023-02-28T04:21:50;5.17;;;3.07;;
71753;SDS011;59593;51.716;7.016;2023-02-28T04:24:18;4.47;;;3.40;;
71753;SDS011;59593;51.716;7.016;2023-02-28T04:26:46;4.53;;;3.30;;
71753;SDS011;59593;51.716;7.016;2023-02-28T04:29:14;4.10;;;3.20;;
71753;SDS011;59593;51.716;7.016;2023-02-28T04:31:44;4.57;;;3.73;;
71753;SDS011;59593;51.716;7.016;2023-02-28T04:34:09;4.83;;;3.27;;
71753;SDS011;59593;51.716;7.016;2023-02-28T04:36:35;5.77;;;3.70;;
71753;SDS011;59593;51.716;7.016;2023-02-28T04:39:00;10.00;;;5.80;;
71753;SDS011;59593;51.716;7.016;2023-02-28T04:41:26;15.20;;;7.23;;
71753;SDS011;59593;51.716;7.016;2023-02-28T04:43:52;23.77;;;11.47;;
71753;SDS011;59593;51.716;7.016;2023-02-28T04:46:18;13.07;;;7.97;;
71753;SDS011;59593;51.716;7.016;2023-02-28T04:48:44;11.87;;;6.00;;
71753;SDS011;59593;51.716;7.016;2023-02-28T04:51:11;9.67;;;5.53;;
71753;SDS011;59593;51.716;7.016;2023-02-28T04:53:38;8.87;;;5.10;;
71753;SDS011;59593;51.716;7.016;2023-02-28T04:56:06;9.17;;;4.80;;
71753;SDS011;59593;51.716;7.016;2023-02-28T04:58:32;6.23;;;4.53;;
71753;SDS011;59593;51.716;7.016;2023-02-28T05:01:02;7.23;;;5.20;;
71753;SDS011;59593;51.716;7.016;2023-02-28T05:03:30;8.70;;;5.60;;
71753;SDS011;59593;51.716;7.016;2023-02-28T05:05:55;9.20;;;6.13;;
71753;SDS011;59593;51.716;7.016;2023-02-28T05:08:21;6.53;;;5.33;;
71753;SDS011;59593;51.716;7.016;2023-02-28T05:10:47;7.77;;;6.13;;
71753;SDS011;59593;51.716;7.016;2023-02-28T05:13:13;8.43;;;5.57;;
71753;SDS011;59593;51.716;7.016;2023-02-28T05:15:38;8.67;;;6.33;;
71753;SDS011;59593;51.716;7.016;2023-02-28T05:18:04;8.50;;;6.20;;
71753;SDS011;59593;51.716;7.016;2023-02-28T05:20:30;9.33;;;5.40;;
71753;SDS011;59593;51.716;7.016;2023-02-28T05:22:56;9.20;;;5.70;;
71753;SDS011;59593;51.716;7.016;2023-02-28T05:25:23;6.90;;;5.17;;
71753;SDS011;59593;51.716;7.016;2023-02-28T05:27:49;8.00;;;5.67;;
71753;SDS011;59593;51.716;7.016;2023-02-28T05:30:14;7.00;;;5.07;;
71753;SDS011;59593;51.716;7.016;2023-02-28T05:32:40;8.23;;;4.93;;
71753;SDS011;59593;51.716;7.016;2023-02-28T05:35:10;7.83;;;4.67;;
71753;SDS011;59593;51.716;7.016;2023-02-28T05:37:37;6.90;;;4.50;;
71753;SDS011;59593;51.716;7.016;2023-02-28T05:40:04;7.60;;;4.93;;
71753;SDS011;59593;51.716;7.016;2023-02-28T05:42:33;7.13;;;4.57;;
71753;SDS011;59593;51.716;7.016;2023-02-28T05:44:59;9.87;;;4.37;;
71753;SDS011;59593;51.716;7.016;2023-02-28T05:47:25;8.90;;;4.70;;
71753;SDS011;59593;51.716;7.016;2023-02-28T05:49:50;6.50;;;4.47;;
71753;SDS011;59593;51.716;7.016;2023-02-28T05:52:16;9.07;;;5.03;;
71753;SDS011;59593;51.716;7.016;2023-02-28T05:54:42;6.27;;;4.47;;
71753;SDS011;59593;51.716;7.016;2023-02-28T05:57:08;5.60;;;4.17;;
71753;SDS011;59593;51.716;7.016;2023-02-28T05:59:33;5.77;;;3.97;;
71753;SDS011;59593;51.716;7.016;2023-02-28T06:01:59;4.93;;;4.00;;
71753;SDS011;59593;51.716;7.016;2023-02-28T06:04:25;6.23;;;4.20;;
71753;SDS011;59593;51.716;7.016;2023-02-28T06:06:50;6.90;;;4.53;;
71753;SDS011;59593;51.716;7.016;2023-02-28T06:09:16;7.33;;;4.50;;
71753;SDS011;59593;51.716;7.016;2023-02-28T06:11:42;6.73;;;4.73;;
71753;SDS011;59593;51.716;7.016;2023-02-28T06:14:12;6.77;;;4.80;;
71753;SDS011;59593;51.716;7.016;2023-02-28T06:16:40;7.43;;;4.60;;
71753;SDS011;59593;51.716;7.016;2023-02-28T06:19:06;7.53;;;5.37;;
71753;SDS011;59593;51.716;7.016;2023-02-28T06:21:31;7.97;;;4.90;;
71753;SDS011;59593;51.716;7.016;2023-02-28T06:23:57;7.53;;;5.00;;
71753;SDS011;59593;51.716;7.016;2023-02-28T06:26:23;7.57;;;4.93;;
71753;SDS011;59593;51.716;7.016;2023-02-28T06:28:49;7.60;;;5.10;;
71753;SDS011;59593;51.716;7.016;2023-02-28T06:31:15;8.27;;;4.87;;
71753;SDS011;59593;51.716;7.016;2023-02-28T06:33:43;7.13;;;4.90;;
71753;SDS011;59593;51.716;7.016;2023-02-28T06:36:10;7.03;;;4.50;;
71753;SDS011;59593;51.716;7.016;2023-02-28T06:38:37;8.90;;;4.60;;
71753;SDS011;59593;51.716;7.016;2023-02-28T06:41:04;5.37;;;4.40;;
71753;SDS011;59593;51.716;7.016;2023-02-28T06:43:31;5.17;;;4.10;;
71753;SDS011;59593;51.716;7.016;2023-02-28T06:46:00;6.40;;;4.87;;
71753;SDS011;59593;51.716;7.016;2023-02-28T06:48:29;7.87;;;5.00;;
71753;SDS011;59593;51.716;7.016;2023-02-28T06:51:04;8.80;;;5.30;;
71753;SDS011;59593;51.716;7.016;2023-02-28T06:53:35;8.17;;;5.50;;
71753;SDS011;59593;51.716;7.016;2023-02-28T06:56:11;8.23;;;5.67;;
71753;SDS011;59593;51.716;7.016;2023-02-28T06:58:38;6.30;;;5.03;;
71753;SDS011;59593;51.716;7.016;2023-02-28T07:01:05;8.27;;;5.70;;
71753;SDS011;59593;51.716;7.016;2023-02-28T07:03:32;8.00;;;5.43;;
71753;SDS011;59593;51.716;7.016;2023-02-28T07:05:59;6.60;;;5.43;;
71753;SDS011;59593;51.716;7.016;2023-02-28T07:08:24;8.30;;;5.70;;
71753;SDS011;59593;51.716;7.016;2023-02-28T07:10:52;12.13;;;5.90;;
71753;SDS011;59593;51.716;7.016;2023-02-28T07:13:18;8.83;;;5.30;;
71753;SDS011;59593;51.716;7.016;2023-02-28T07:15:44;7.40;;;5.43;;
71753;SDS011;59593;51.716;7.016;2023-02-28T07:18:17;10.83;;;5.50;;
71753;SDS011;59593;51.716;7.016;2023-02-28T07:20:42;7.40;;;5.60;;
71753;SDS011;59593;51.716;7.016;2023-02-28T07:23:08;9.67;;;5.43;;
71753;SDS011;59593;51.716;7.016;2023-02-28T07:25:34;8.83;;;4.80;;
71753;SDS011;59593;51.716;7.016;2023-02-28T07:27:59;7.07;;;4.70;;
71753;SDS011;59593;51.716;7.016;2023-02-28T07:30:25;9.67;;;5.07;;
71753;SDS011;59593;51.716;7.016;2023-02-28T07:32:50;8.83;;;4.83;;
71753;SDS011;59593;51.716;7.016;2023-02-28T07:35:16;7.93;;;5.27;;
71753;SDS011;59593;51.716;7.016;2023-02-28T07:37:42;9.37;;;5.47;;
71753;SDS011;59593;51.716;7.016;2023-02-28T07:40:09;7.63;;;5.20;;
71753;SDS011;59593;51.716;7.016;2023-02-28T07:42:39;8.40;;;5.37;;
71753;SDS011;59593;51.716;7.016;2023-02-28T07:45:10;7.90;;;5.07;;
71753;SDS011;59593;51.716;7.016;2023-02-28T07:47:37;8.50;;;5.00;;
71753;SDS011;59593;51.716;7.016;2023-02-28T07:50:04;7.27;;;4.53;;
71753;SDS011;59593;51.716;7.016;2023-02-28T07:52:30;7.97;;;4.67;;
71753;SDS011;59593;51.716;7.016;2023-02-28T07:54:57;5.67;;;4.70;;
71753;SDS011;59593;51.716;7.016;2023-02-28T07:57:23;9.67;;;5.13;;
71753;SDS011;59593;51.716;7.016;2023-02-28T07:59:48;8.03;;;4.93;;
71753;SDS011;59593;51.716;7.016;2023-02-28T08:02:15;8.20;;;5.17;;
71753;SDS011;59593;51.716;7.016;2023-02-28T08:04:42;7.30;;;4.63;;
71753;SDS011;59593;51.716;7.016;2023-02-28T08:07:08;8.07;;;4.93;;
71753;SDS011;59593;51.716;7.016;2023-02-28T08:09:38;7.83;;;5.00;;
71753;SDS011;59593;51.716;7.016;2023-02-28T08:12:04;6.37;;;4.20;;
71753;SDS011;59593;51.716;7.016;2023-02-28T08:14:31;7.87;;;3.90;;
71753;SDS011;59593;51.716;7.016;2023-02-28T08:16:56;5.33;;;4.00;;
71753;SDS011;59593;51.716;7.016;2023-02-28T08:19:22;4.90;;;3.40;;
71753;SDS011;59593;51.716;7.016;2023-02-28T08:21:48;6.50;;;3.60;;
71753;SDS011;59593;51.716;7.016;2023-02-28T08:24:13;6.27;;;3.70;;
71753;SDS011;59593;51.716;7.016;2023-02-28T08:26:39;5.80;;;3.90;;
71753;SDS011;59593;51.716;7.016;2023-02-28T08:29:04;5.17;;;3.33;;
71753;SDS011;59593;51.716;7.016;2023-02-28T08:31:33;5.50;;;2.90;;
71753;SDS011;59593;51.716;7.016;2023-02-28T08:34:04;3.63;;;2.90;;
71753;SDS011;59593;51.716;7.016;2023-02-28T08:36:31;4.23;;;2.90;;
71753;SDS011;59593;51.716;7.016;2023-02-28T08:38:56;4.17;;;2.37;;
71753;SDS011;59593;51.716;7.016;2023-02-28T08:41:23;3.00;;;2.10;;
71753;SDS011;59593;51.716;7.016;2023-02-28T08:43:48;2.83;;;2.23;;
71753;SDS011;59593;51.716;7.016;2023-02-28T08:46:17;3.77;;;2.10;;
71753;SDS011;59593;51.716;7.016;2023-02-28T08:48:43;2.00;;;1.80;;
71753;SDS011;59593;51.716;7.016;2023-02-28T08:51:10;2.83;;;1.77;;
71753;SDS011;59593;51.716;7.016;2023-02-28T08:53:58;2.60;;;2.10;;
71753;SDS011;59593;51.716;7.016;2023-02-28T08:56:25;3.23;;;2.03;;
71753;SDS011;59593;51.716;7.016;2023-02-28T08:58:52;2.27;;;1.80;;
71753;SDS011;59593;51.716;7.016;2023-02-28T09:01:21;2.43;;;1.80;;
71753;SDS011;59593;51.716;7.016;2023-02-28T09:03:49;1.90;;;1.70;;
71753;SDS011;59593;51.716;7.016;2023-02-28T09:06:16;1.93;;;1.73;;
71753;SDS011;59593;51.716;7.016;2023-02-28T09:08:44;3.03;;;1.80;;
71753;SDS011;59593;51.716;7.016;2023-02-28T09:11:10;2.67;;;1.77;;
71753;SDS011;59593;51.716;7.016;2023-02-28T09:13:36;2.17;;;1.80;;
71753;SDS011;59593;51.716;7.016;2023-02-28T09:16:03;2.73;;;1.90;;
71753;SDS011;59593;51.716;7.016;2023-02-28T09:18:30;2.27;;;1.87;;
71753;SDS011;59593;51.716;7.016;2023-02-28T09:20:56;3.40;;;1.93;;
71753;SDS011;59593;51.716;7.016;2023-02-28T09:23:22;1.57;;;1.43;;
71753;SDS011;59593;51.716;7.016;2023-02-28T09:25:52;2.33;;;1.37;;
71753;SDS011;59593;51.716;7.016;2023-02-28T09:28:19;2.73;;;1.97;;
71753;SDS011;59593;51.716;7.016;2023-02-28T09:30:45;4.57;;;2.00;;
71753;SDS011;59593;51.716;7.016;2023-02-28T09:33:13;2.47;;;2.00;;
71753;SDS011;59593;51.716;7.016;2023-02-28T09:35:39;2.87;;;2.30;;
71753;SDS011;59593;51.716;7.016;2023-02-28T09:38:05;2.20;;;1.77;;
71753;SDS011;59593;51.716;7.016;2023-02-28T09:40:34;2.30;;;1.80;;
71753;SDS011;59593;51.716;7.016;2023-02-28T09:43:29;2.13;;;1.70;;
71753;SDS011;59593;51.716;7.016;2023-02-28T09:46:00;2.33;;;1.73;;
71753;SDS011;59593;51.716;7.016;2023-02-28T09:48:57;2.80;;;1.80;;
71753;SDS011;59593;51.716;7.016;2023-02-28T09:51:45;1.80;;;1.50;;
71753;SDS011;59593;51.716;7.016;2023-02-28T09:54:16;2.47;;;2.17;;
71753;SDS011;59593;51.716;7.016;2023-02-28T09:59:33;2.97;;;2.00;;
71753;SDS011;59593;51.716;7.016;2023-02-28T10:05:11;7.23;;;2.13;;
71753;SDS011;59593;51.716;7.016;2023-02-28T10:13:45;2.93;;;1.77;;
71753;SDS011;59593;51.716;7.016;2023-02-28T10:16:14;2.20;;;1.53;;
71753;SDS011;59593;51.716;7.016;2023-02-28T10:22:14;2.30;;;1.77;;
71753;SDS011;59593;51.716;7.016;2023-02-28T10:24:48;5.90;;;2.00;;
71753;SDS011;59593;51.716;7.016;2023-02-28T10:29:58;3.30;;;2.10;;
71753;SDS011;59593;51.716;7.016;2023-02-28T10:32:27;3.13;;;1.77;;
71753;SDS011;59593;51.716;7.016;2023-02-28T10:37:34;2.70;;;1.77;;
71753;SDS011;59593;51.716;7.016;2023-02-28T10:40:03;2.33;;;1.77;;
71753;SDS011;59593;51.716;7.016;2023-02-28T10:42:31;2.10;;;1.60;;
71753;SDS011;59593;51.716;7.016;2023-02-28T10:50:27;1.63;;;1.50;;
71753;SDS011;59593;51.716;7.016;2023-02-28T10:53:03;2.00;;;1.57;;
71753;SDS011;59593;51.716;7.016;2023-02-28T10:55:39;4.50;;;2.07;;
71753;SDS011;59593;51.716;7.016;2023-02-28T10:58:18;2.00;;;1.57;;
71753;SDS011;59593;51.716;7.016;2023-02-28T11:00:47;4.03;;;1.80;;
71753;SDS011;59593;51.716;7.016;2023-02-28T11:03:24;3.77;;;1.90;;
71753;SDS011;59593;51.716;7.016;2023-02-28T11:05:53;2.60;;;1.77;;
71753;SDS011;59593;51.716;7.016;2023-02-28T11:08:19;2.20;;;1.87;;
71753;SDS011;59593;51.716;7.016;2023-02-28T11:10:46;3.57;;;2.00;;
71753;SDS011;59593;51.716;7.016;2023-02-28T11:13:20;3.27;;;2.07;;
71753;SDS011;59593;51.716;7.016;2023-02-28T11:15:51;3.93;;;2.00;;
71753;SDS011;59593;51.716;7.016;2023-02-28T11:20:53;4.00;;;2.30;;
71753;SDS011;59593;51.716;7.016;2023-02-28T11:23:20;2.67;;;2.00;;
71753;SDS011;59593;51.716;7.016;2023-02-28T11:25:53;3.27;;;1.77;;
71753;SDS011;59593;51.716;7.016;2023-02-28T11:28:32;3.40;;;2.30;;
71753;SDS011;59593;51.716;7.016;2023-02-28T11:31:00;3.27;;;2.03;;
71753;SDS011;59593;51.716;7.016;2023-02-28T11:33:31;3.73;;;2.03;;
71753;SDS011;59593;51.716;7.016;2023-02-28T11:36:10;3.30;;;2.20;;
71753;SDS011;59593;51.716;7.016;2023-02-28T11:38:41;3.57;;;2.20;;
71753;SDS011;59593;51.716;7.016;2023-02-28T11:46:54;4.30;;;2.07;;
71753;SDS011;59593;51.716;7.016;2023-02-28T11:52:13;3.50;;;2.10;;
71753;SDS011;59593;51.716;7.016;2023-02-28T11:55:00;3.80;;;2.10;;
71753;SDS011;59593;51.716;7.016;2023-02-28T12:00:19;3.07;;;2.07;;
71753;SDS011;59593;51.716;7.016;2023-02-28T12:03:04;2.73;;;1.90;;
71753;SDS011;59593;51.716;7.016;2023-02-28T12:13:48;3.17;;;2.50;;
71753;SDS011;59593;51.716;7.016;2023-02-28T12:16:39;3.37;;;2.20;;
71753;SDS011;59593;51.716;7.016;2023-02-28T12:22:02;3.00;;;2.07;;
71753;SDS011;59593;51.716;7.016;2023-02-28T12:27:19;2.20;;;2.00;;
71753;SDS011;59593;51.716;7.016;2023-02-28T12:29:56;3.03;;;2.20;;
71753;SDS011;59593;51.716;7.016;2023-02-28T12:32:30;3.70;;;2.30;;
71753;SDS011;59593;51.716;7.016;2023-02-28T12:40:09;2.93;;;2.03;;
71753;SDS011;59593;51.716;7.016;2023-02-28T12:42:46;2.50;;;2.10;;
71753;SDS011;59593;51.716;7.016;2023-02-28T12:45:25;3.13;;;2.10;;
71753;SDS011;59593;51.716;7.016;2023-02-28T12:48:05;4.83;;;3.17;;
71753;SDS011;59593;51.716;7.016;2023-02-28T12:50:33;2.33;;;2.07;;
71753;SDS011;59593;51.716;7.016;2023-02-28T12:53:09;4.67;;;3.17;;
71753;SDS011;59593;51.716;7.016;2023-02-28T13:09:33;2.60;;;1.80;;
71753;SDS011;59593;51.716;7.016;2023-02-28T13:11:59;2.47;;;1.90;;
71753;SDS011;59593;51.716;7.016;2023-02-28T13:14:43;2.17;;;1.97;;
71753;SDS011;59593;51.716;7.016;2023-02-28T13:19:45;6.23;;;3.20;;
71753;SDS011;59593;51.716;7.016;2023-02-28T13:24:57;3.87;;;1.97;;
71753;SDS011;59593;51.716;7.016;2023-02-28T13:30:00;2.53;;;2.20;;
71753;SDS011;59593;51.716;7.016;2023-02-28T13:32:34;2.93;;;2.40;;
71753;SDS011;59593;51.716;7.016;2023-02-28T13:37:31;3.37;;;2.20;;
71753;SDS011;59593;51.716;7.016;2023-02-28T13:47:39;2.97;;;2.10;;
71753;SDS011;59593;51.716;7.016;2023-02-28T14:07:09;3.93;;;2.50;;
71753;SDS011;59593;51.716;7.016;2023-02-28T14:09:56;3.17;;;2.40;;
71753;SDS011;59593;51.716;7.016;2023-02-28T14:20:52;3.77;;;2.30;;
71753;SDS011;59593;51.716;7.016;2023-02-28T14:27:24;4.13;;;2.40;;
71753;SDS011;59593;51.716;7.016;2023-02-28T14:33:38;2.50;;;2.27;;
71753;SDS011;59593;51.716;7.016;2023-02-28T14:37:01;2.77;;;2.23;;
71753;SDS011;59593;51.716;7.016;2023-02-28T14:45:24;4.70;;;2.50;;
71753;SDS011;59593;51.716;7.016;2023-02-28T14:48:10;3.40;;;2.40;;
71753;SDS011;59593;51.716;7.016;2023-02-28T14:54:18;2.77;;;2.30;;
71753;SDS011;59593;51.716;7.016;2023-02-28T14:57:01;2.73;;;2.40;;
71753;SDS011;59593;51.716;7.016;2023-02-28T14:59:34;3.00;;;2.30;;
71753;SDS011;59593;51.716;7.016;2023-02-28T15:02:36;3.60;;;2.70;;
71753;SDS011;59593;51.716;7.016;2023-02-28T15:07:41;2.90;;;2.60;;
71753;SDS011;59593;51.716;7.016;2023-02-28T15:10:26;2.73;;;2.50;;
71753;SDS011;59593;51.716;7.016;2023-02-28T15:12:54;3.20;;;2.53;;
71753;SDS011;59593;51.716;7.016;2023-02-28T15:18:46;5.37;;;2.60;;
71753;SDS011;59593;51.716;7.016;2023-02-28T15:21:17;3.93;;;2.63;;
71753;SDS011;59593;51.716;7.016;2023-02-28T15:23:48;4.20;;;2.60;;
71753;SDS011;59593;51.716;7.016;2023-02-28T15:26:24;3.60;;;2.93;;
71753;SDS011;59593;51.716;7.016;2023-02-28T15:29:28;3.47;;;2.40;;
71753;SDS011;59593;51.716;7.016;2023-02-28T15:40:10;4.03;;;2.77;;
71753;SDS011;59593;51.716;7.016;2023-02-28T15:42:36;3.00;;;2.43;;
71753;SDS011;59593;51.716;7.016;2023-02-28T15:45:02;4.37;;;2.90;;
71753;SDS011;59593;51.716;7.016;2023-02-28T15:47:35;5.03;;;2.60;;
71753;SDS011;59593;51.716;7.016;2023-02-28T15:50:27;3.63;;;2.60;;
71753;SDS011;59593;51.716;7.016;2023-02-28T15:53:11;3.77;;;3.20;;
71753;SDS011;59593;51.716;7.016;2023-02-28T15:55:38;3.73;;;2.47;;
71753;SDS011;59593;51.716;7.016;2023-02-28T15:58:04;4.17;;;2.37;;
71753;SDS011;59593;51.716;7.016;2023-02-28T16:00:42;3.20;;;2.30;;
71753;SDS011;59593;51.716;7.016;2023-02-28T16:09:16;2.30;;;2.07;;
71753;SDS011;59593;51.716;7.016;2023-02-28T16:12:01;4.80;;;3.00;;
71753;SDS011;59593;51.716;7.016;2023-02-28T16:14:38;3.63;;;2.57;;
71753;SDS011;59593;51.716;7.016;2023-02-28T16:17:09;4.57;;;3.00;;
71753;SDS011;59593;51.716;7.016;2023-02-28T16:19:50;3.90;;;2.60;;
71753;SDS011;59593;51.716;7.016;2023-02-28T16:22:18;3.33;;;2.50;;
71753;SDS011;59593;51.716;7.016;2023-02-28T16:24:44;4.93;;;2.60;;
71753;SDS011;59593;51.716;7.016;2023-02-28T16:27:15;5.97;;;3.50;;
71753;SDS011;59593;51.716;7.016;2023-02-28T16:29:50;3.73;;;2.37;;
71753;SDS011;59593;51.716;7.016;2023-02-28T16:32:16;2.87;;;2.27;;
71753;SDS011;59593;51.716;7.016;2023-02-28T16:34:45;3.93;;;2.43;;
71753;SDS011;59593;51.716;7.016;2023-02-28T16:37:17;3.23;;;2.37;;
71753;SDS011;59593;51.716;7.016;2023-02-28T16:39:49;3.33;;;2.40;;
71753;SDS011;59593;51.716;7.016;2023-02-28T16:42:20;4.10;;;2.83;;
71753;SDS011;59593;51.716;7.016;2023-02-28T16:44:50;3.83;;;2.50;;
71753;SDS011;59593;51.716;7.016;2023-02-28T16:47:17;4.33;;;2.30;;
71753;SDS011;59593;51.716;7.016;2023-02-28T16:49:43;3.70;;;2.70;;
71753;SDS011;59593;51.716;7.016;2023-02-28T16:52:10;3.13;;;2.40;;
71753;SDS011;59593;51.716;7.016;2023-02-28T16:54:38;3.17;;;2.30;;
71753;SDS011;59593;51.716;7.016;2023-02-28T16:57:04;3.90;;;2.73;;
71753;SDS011;59593;51.716;7.016;2023-02-28T16:59:31;5.03;;;3.20;;
71753;SDS011;59593;51.716;7.016;2023-02-28T17:01:57;5.27;;;3.60;;
71753;SDS011;59593;51.716;7.016;2023-02-28T17:04:26;4.47;;;3.30;;
71753;SDS011;59593;51.716;7.016;2023-02-28T17:06:52;11.10;;;7.10;;
71753;SDS011;59593;51.716;7.016;2023-02-28T17:09:20;8.13;;;5.97;;
71753;SDS011;59593;51.716;7.016;2023-02-28T17:11:47;5.90;;;4.53;;
71753;SDS011;59593;51.716;7.016;2023-02-28T17:14:13;12.77;;;8.67;;
71753;SDS011;59593;51.716;7.016;2023-02-28T17:16:39;22.33;;;15.40;;
71753;SDS011;59593;51.716;7.016;2023-02-28T17:19:09;32.63;;;21.27;;
71753;SDS011;59593;51.716;7.016;2023-02-28T17:21:36;20.33;;;13.57;;
71753;SDS011;59593;51.716;7.016;2023-02-28T17:24:02;20.53;;;12.90;;
71753;SDS011;59593;51.716;7.016;2023-02-28T17:26:29;66.50;;;43.20;;
71753;SDS011;59593;51.716;7.016;2023-02-28T17:28:56;66.63;;;40.90;;
71753;SDS011;59593;51.716;7.016;2023-02-28T17:31:23;72.90;;;45.53;;
71753;SDS011;59593;51.716;7.016;2023-02-28T17:33:49;31.33;;;19.80;;
71753;SDS011;59593;51.716;7.016;2023-02-28T17:36:25;45.97;;;31.03;;
71753;SDS011;59593;51.716;7.016;2023-02-28T17:38:52;107.47;;;59.70;;
71753;SDS011;59593;51.716;7.016;2023-02-28T17:41:22;90.93;;;54.43;;
71753;SDS011;59593;51.716;7.016;2023-02-28T17:43:47;64.40;;;41.23;;
71753;SDS011;59593;51.716;7.016;2023-02-28T17:46:22;73.93;;;43.80;;
71753;SDS011;59593;51.716;7.016;2023-02-28T17:48:50;53.47;;;33.07;;
71753;SDS011;59593;51.716;7.016;2023-02-28T17:51:18;47.07;;;30.30;;
71753;SDS011;59593;51.716;7.016;2023-02-28T17:53:45;40.40;;;24.67;;
71753;SDS011;59593;51.716;7.016;2023-02-28T17:56:19;26.17;;;14.83;;
71753;SDS011;59593;51.716;7.016;2023-02-28T17:58:46;17.70;;;11.93;;
71753;SDS011;59593;51.716;7.016;2023-02-28T18:01:23;13.73;;;8.67;;